CheckWX is a tool to help pilots better visualize weather data.  It is not intended as a substitute for an official pre-flight weather briefing.

17:52:11 UTC

KDLZ METAR
Delaware Municipal - Jim Moore Field Airport
Delaware, Ohio, USA
Current

17 mins ago

KDLZ 211735Z AUTO 21008KT 10SM CLR 32/21 A2995 RMK AO2
Observed
Jul-21 @ 17:35 UTC
Wind
  • 210° at 8 KTS
Visibility
10 SM
Flight Rules
VFR
Cloud Levels
  • Clear skies
Temperature
32°C / 90°F
Dewpoint
21°C / 70°F
Heat Index
36°C / 96°F
Humidity
52%
Altimeter
29.95" Hg
Pressure
1014.22 hPa
Previous

37 mins ago

KDLZ 211715Z AUTO 26004KT 10SM CLR 32/21 A2995 RMK AO2
Observed
Jul-21 @ 17:15 UTC
Wind
  • 260° at 4 KTS
Visibility
10 SM
Flight Rules
VFR
Cloud Levels
  • Clear skies
Temperature
32°C / 90°F
Dewpoint
21°C / 70°F
Heat Index
36°C / 96°F
Humidity
52%
Altimeter
29.95" Hg
Pressure
1014.22 hPa
Previous

57 mins ago

KDLZ 211655Z AUTO 24004KT 10SM SCT037 32/21 A2996 RMK AO2
Observed
Jul-21 @ 16:55 UTC
Wind
  • 240° at 4 KTS
Visibility
10 SM
Flight Rules
VFR
Cloud Levels
  • Scattered at 3,700' AGL
Temperature
32°C / 90°F
Dewpoint
21°C / 70°F
Heat Index
36°C / 96°F
Humidity
52%
Altimeter
29.96" Hg
Pressure
1014.52 hPa